Time;durP1;ratioP1;P1;durP2;ratioP2;P2;SDS_P1;SDS_P2;PMS_P1;PMS_P2;Temp;Humidity;BMP_temperature;BMP_pressure;BME280_temperature;BME280_humidity;BME280_pressure;Samples;Min_cycle;Max_cycle;Signal;HPM_P1;HPM_P2
2023/12/18 00:01:37;;;;;;;12.23;11.63;;;;;;;;;;5073654;28;20070;-61
2023/12/18 00:04:03;;;;;;;11.30;10.80;;;;;;;;;;5074452;28;20049;-63
2023/12/18 00:06:31;;;;;;;12.10;11.50;;;;;;;;;;5072398;28;20608;-62
2023/12/18 00:08:56;;;;;;;12.35;11.75;;;;;;;;;;5074066;28;20023;-62
2023/12/18 00:11:22;;;;;;;12.40;11.80;;;;;;;;;;5073528;28;20463;-62
2023/12/18 00:13:47;;;;;;;11.52;11.02;;;;;;;;;;5073857;28;20490;-61
2023/12/18 00:16:12;;;;;;;11.90;11.30;;;;;;;;;;5072652;28;20465;-61
2023/12/18 00:18:38;;;;;;;11.82;11.23;;;;;;;;;;5073573;28;20020;-61
2023/12/18 00:21:03;;;;;;;11.55;11.05;;;;;;;;;;5074377;28;20020;-61
2023/12/18 00:23:29;;;;;;;11.90;11.30;;;;;;;;;;5073097;28;20025;-62
2023/12/18 00:25:54;;;;;;;11.75;11.23;;;;;;;;;;5073397;28;20027;-61
2023/12/18 00:28:20;;;;;;;12.20;11.60;;;;;;;;;;5062612;28;20025;-61
2023/12/18 00:30:45;;;;;;;11.70;11.20;;;;;;;;;;5073641;28;20105;-61
2023/12/18 00:33:10;;;;;;;11.73;11.20;;;;;;;;;;5073012;28;20541;-61
2023/12/18 00:35:36;;;;;;;12.60;12.00;;;;;;;;;;5073095;28;20020;-61
2023/12/18 00:38:01;;;;;;;12.50;11.90;;;;;;;;;;5070751;28;20013;-61
2023/12/18 00:40:26;;;;;;;12.00;11.40;;;;;;;;;;5072913;28;20044;-61
2023/12/18 00:42:52;;;;;;;11.80;11.20;;;;;;;;;;5073125;28;20527;-62
2023/12/18 00:45:17;;;;;;;12.88;12.18;;;;;;;;;;5072841;28;20507;-61
2023/12/18 00:47:43;;;;;;;11.75;11.23;;;;;;;;;;5073154;28;20455;-62
2023/12/18 00:50:09;;;;;;;11.60;11.10;;;;;;;;;;5073778;28;20489;-62
2023/12/18 00:52:38;;;;;;;11.88;11.27;;;;;;;;;;5077685;28;20025;-62
2023/12/18 00:55:05;;;;;;;11.70;11.20;;;;;;;;;;5064905;28;20070;-61
2023/12/18 00:57:30;;;;;;;11.88;11.30;;;;;;;;;;5071623;28;20028;-61
2023/12/18 00:59:56;;;;;;;12.00;11.40;;;;;;;;;;5076988;28;20027;-61
2023/12/18 01:02:21;;;;;;;11.75;11.15;;;;;;;;;;5073314;28;20016;-62
2023/12/18 01:04:46;;;;;;;11.43;10.93;;;;;;;;;;5072668;28;20028;-62
2023/12/18 01:07:12;;;;;;;11.60;11.10;;;;;;;;;;5072506;28;20016;-61
2023/12/18 01:09:37;;;;;;;12.35;11.75;;;;;;;;;;5068258;28;20025;-62
2023/12/18 01:12:03;;;;;;;12.18;11.57;;;;;;;;;;5072593;28;20009;-61
2023/12/18 01:14:28;;;;;;;12.10;11.50;;;;;;;;;;5072627;28;20391;-61
2023/12/18 01:16:54;;;;;;;12.07;11.48;;;;;;;;;;5070602;28;20040;-60
2023/12/18 01:19:20;;;;;;;11.52;11.02;;;;;;;;;;5072321;28;20032;-62
2023/12/18 01:21:46;;;;;;;12.00;11.40;;;;;;;;;;5072236;28;20068;-62
2023/12/18 01:24:11;;;;;;;11.80;11.27;;;;;;;;;;5071977;28;20082;-60
2023/12/18 01:26:36;;;;;;;11.82;11.32;;;;;;;;;;5069371;28;20029;-61
2023/12/18 01:29:02;;;;;;;11.93;11.32;;;;;;;;;;5073093;28;20025;-60
2023/12/18 01:31:27;;;;;;;12.20;11.60;;;;;;;;;;5073792;28;20024;-61
2023/12/18 01:33:53;;;;;;;11.85;11.27;;;;;;;;;;5072399;28;20107;-61
2023/12/18 01:36:18;;;;;;;12.10;11.50;;;;;;;;;;5071890;28;20025;-61
2023/12/18 01:38:44;;;;;;;12.15;11.55;;;;;;;;;;5072266;28;20075;-62
2023/12/18 01:41:10;;;;;;;12.30;11.70;;;;;;;;;;5071967;28;20029;-62
2023/12/18 01:43:35;;;;;;;12.30;11.70;;;;;;;;;;5071972;28;20557;-62
2023/12/18 01:46:01;;;;;;;11.23;10.73;;;;;;;;;;5072011;28;20028;-60
2023/12/18 01:48:27;;;;;;;11.98;11.38;;;;;;;;;;5071690;28;20543;-61
2023/12/18 01:50:54;;;;;;;12.13;11.52;;;;;;;;;;5078971;28;20019;-61
2023/12/18 01:53:20;;;;;;;11.90;11.32;;;;;;;;;;5071700;28;20021;-61
2023/12/18 01:55:45;;;;;;;12.20;11.60;;;;;;;;;;5071660;28;20480;-61
2023/12/18 01:58:12;;;;;;;11.70;11.20;;;;;;;;;;5071291;28;20036;-62
2023/12/18 02:00:38;;;;;;;11.50;11.00;;;;;;;;;;5068604;28;20555;-61
2023/12/18 02:03:04;;;;;;;11.68;11.10;;;;;;;;;;5071457;28;20017;-60
2023/12/18 02:05:29;;;;;;;12.07;11.48;;;;;;;;;;5071803;28;20061;-60
2023/12/18 02:07:55;;;;;;;11.80;11.20;;;;;;;;;;5071771;28;20024;-60
2023/12/18 02:10:21;;;;;;;11.88;11.27;;;;;;;;;;5071730;28;20025;-60
2023/12/18 02:12:46;;;;;;;11.93;11.32;;;;;;;;;;5071861;28;20491;-61
2023/12/18 02:15:11;;;;;;;11.40;10.90;;;;;;;;;;5074444;28;20080;-61
2023/12/18 02:17:37;;;;;;;12.30;11.70;;;;;;;;;;5068489;28;20527;-61
2023/12/18 02:20:08;;;;;;;11.57;11.07;;;;;;;;;;5070715;28;20086;-60
2023/12/18 02:22:46;;;;;;;11.35;10.85;;;;;;;;;;5068025;28;20111;-61
2023/12/18 02:25:12;;;;;;;11.75;11.15;;;;;;;;;;5064017;28;20698;-61
2023/12/18 02:27:38;;;;;;;11.80;11.20;;;;;;;;;;5070932;28;20020;-61
2023/12/18 02:30:03;;;;;;;11.52;11.02;;;;;;;;;;5072903;28;20021;-63
2023/12/18 02:32:29;;;;;;;12.48;11.88;;;;;;;;;;5073104;28;20059;-60
2023/12/18 02:34:54;;;;;;;12.00;11.40;;;;;;;;;;5070995;28;20029;-60
2023/12/18 02:37:19;;;;;;;12.48;11.88;;;;;;;;;;5069371;28;20108;-61
2023/12/18 02:39:45;;;;;;;13.00;12.30;;;;;;;;;;5070862;28;20040;-61
2023/12/18 02:42:10;;;;;;;12.23;11.63;;;;;;;;;;5071087;28;20020;-62
2023/12/18 02:44:35;;;;;;;12.02;11.43;;;;;;;;;;5070644;28;20032;-61
2023/12/18 02:47:01;;;;;;;12.80;12.13;;;;;;;;;;5071037;28;20024;-60
2023/12/18 02:49:26;;;;;;;12.27;11.68;;;;;;;;;;5067868;28;20016;-61
2023/12/18 02:51:52;;;;;;;12.00;11.40;;;;;;;;;;5070961;28;20017;-61
2023/12/18 02:54:17;;;;;;;12.02;11.43;;;;;;;;;;5070226;28;20107;-62
2023/12/18 02:56:42;;;;;;;12.18;11.57;;;;;;;;;;5067587;28;20025;-62
2023/12/18 02:59:07;;;;;;;11.95;11.35;;;;;;;;;;5070709;28;20029;-60
2023/12/18 03:01:35;;;;;;;12.95;12.25;;;;;;;;;;5069274;28;20020;-61
2023/12/18 03:04:00;;;;;;;12.07;11.48;;;;;;;;;;5069853;28;20054;-61
2023/12/18 03:06:26;;;;;;;12.00;11.40;;;;;;;;;;5074800;28;20104;-61
2023/12/18 03:08:51;;;;;;;12.40;11.80;;;;;;;;;;5072129;28;20040;-61
2023/12/18 03:11:17;;;;;;;11.98;11.38;;;;;;;;;;5074766;28;20025;-61
2023/12/18 03:13:42;;;;;;;13.57;12.88;;;;;;;;;;5074508;28;20016;-61
2023/12/18 03:16:08;;;;;;;12.05;11.45;;;;;;;;;;5074605;28;20048;-61
2023/12/18 03:18:33;;;;;;;12.43;11.82;;;;;;;;;;5074351;28;20028;-62
2023/12/18 03:20:58;;;;;;;11.75;11.18;;;;;;;;;;5074951;28;20025;-60
2023/12/18 03:23:24;;;;;;;12.30;11.70;;;;;;;;;;5069286;28;20085;-60
2023/12/18 03:25:49;;;;;;;12.18;11.57;;;;;;;;;;5074654;28;20024;-61
2023/12/18 03:28:16;;;;;;;11.50;11.00;;;;;;;;;;5074282;28;20452;-60
2023/12/18 03:30:41;;;;;;;12.00;11.40;;;;;;;;;;5074065;28;20027;-62
2023/12/18 03:33:06;;;;;;;12.18;11.57;;;;;;;;;;5074396;28;20104;-60
2023/12/18 03:35:32;;;;;;;12.40;11.80;;;;;;;;;;5067503;28;20020;-61
2023/12/18 03:37:58;;;;;;;12.18;11.57;;;;;;;;;;5068527;28;20107;-60
2023/12/18 03:40:24;;;;;;;12.57;11.98;;;;;;;;;;5074132;28;20032;-62
2023/12/18 03:42:49;;;;;;;12.18;11.57;;;;;;;;;;5073829;28;20097;-62
2023/12/18 03:45:14;;;;;;;12.27;11.68;;;;;;;;;;5074119;28;20377;-61
2023/12/18 03:47:40;;;;;;;12.18;11.57;;;;;;;;;;5073899;28;20028;-62
2023/12/18 03:50:05;;;;;;;11.48;10.98;;;;;;;;;;5074574;28;20024;-62
2023/12/18 03:52:30;;;;;;;12.15;11.55;;;;;;;;;;5074567;28;20024;-62
2023/12/18 03:54:56;;;;;;;11.93;11.32;;;;;;;;;;5073787;28;20097;-62
2023/12/18 03:57:21;;;;;;;12.40;11.80;;;;;;;;;;5073358;28;20027;-62
2023/12/18 03:59:47;;;;;;;12.07;11.48;;;;;;;;;;5073961;28;20095;-61
2023/12/18 04:02:12;;;;;;;12.60;12.00;;;;;;;;;;5073492;28;20380;-62
2023/12/18 04:04:37;;;;;;;12.68;12.07;;;;;;;;;;5072608;28;20017;-62
2023/12/18 04:07:03;;;;;;;12.13;11.52;;;;;;;;;;5059321;28;20479;-61
2023/12/18 04:09:28;;;;;;;12.18;11.57;;;;;;;;;;5070619;28;20035;-61
2023/12/18 04:11:53;;;;;;;11.93;11.32;;;;;;;;;;5073257;28;20027;-60
2023/12/18 04:14:18;;;;;;;12.32;11.73;;;;;;;;;;5073668;28;20422;-61
2023/12/18 04:16:44;;;;;;;12.02;11.43;;;;;;;;;;5070333;28;20450;-61
2023/12/18 04:19:09;;;;;;;11.98;11.38;;;;;;;;;;5072505;28;20384;-61
2023/12/18 04:21:35;;;;;;;12.20;11.60;;;;;;;;;;5070405;28;20093;-62
2023/12/18 04:24:00;;;;;;;11.98;11.38;;;;;;;;;;5073030;28;20027;-62
2023/12/18 04:26:25;;;;;;;12.23;11.63;;;;;;;;;;5072628;28;20449;-61
2023/12/18 04:28:51;;;;;;;12.00;11.40;;;;;;;;;;5072806;28;20036;-61
2023/12/18 04:31:19;;;;;;;12.23;11.63;;;;;;;;;;5065831;28;20074;-61
2023/12/18 04:33:45;;;;;;;12.85;12.18;;;;;;;;;;5072312;28;20012;-62
2023/12/18 04:36:11;;;;;;;12.55;11.95;;;;;;;;;;5073031;28;20029;-61
2023/12/18 04:38:36;;;;;;;12.45;11.85;;;;;;;;;;5070846;28;20165;-62
2023/12/18 04:41:01;;;;;;;12.52;11.93;;;;;;;;;;5072943;28;20369;-61
2023/12/18 04:43:29;;;;;;;12.60;11.98;;;;;;;;;;5069780;28;20510;-62
2023/12/18 04:45:54;;;;;;;11.73;11.13;;;;;;;;;;5072946;28;20090;-62
2023/12/18 04:48:20;;;;;;;11.80;11.20;;;;;;;;;;5068051;28;20091;-63
2023/12/18 04:50:45;;;;;;;11.77;11.18;;;;;;;;;;5073396;28;20070;-62
2023/12/18 04:53:11;;;;;;;12.25;11.65;;;;;;;;;;5072623;28;20021;-63
2023/12/18 04:55:37;;;;;;;12.50;11.90;;;;;;;;;;5072604;28;20028;-62
2023/12/18 04:58:03;;;;;;;12.85;12.15;;;;;;;;;;5072144;28;20029;-62
2023/12/18 05:00:28;;;;;;;12.90;12.20;;;;;;;;;;5072347;28;20024;-62
2023/12/18 05:02:54;;;;;;;12.50;11.90;;;;;;;;;;5071414;28;20078;-62
2023/12/18 05:05:19;;;;;;;13.73;12.98;;;;;;;;;;5068551;28;20020;-62
2023/12/18 05:07:44;;;;;;;13.32;12.63;;;;;;;;;;5071606;28;20027;-62
2023/12/18 05:10:10;;;;;;;12.65;12.05;;;;;;;;;;5067805;28;20021;-61
2023/12/18 05:12:35;;;;;;;11.95;11.35;;;;;;;;;;5066866;28;20014;-63
2023/12/18 05:15:00;;;;;;;12.02;11.43;;;;;;;;;;5072143;28;20451;-62
2023/12/18 05:17:26;;;;;;;12.30;11.70;;;;;;;;;;5068754;28;20120;-61
2023/12/18 05:19:51;;;;;;;12.00;11.40;;;;;;;;;;5072081;28;20539;-61
2023/12/18 05:22:17;;;;;;;11.95;11.35;;;;;;;;;;5072348;28;20499;-62
2023/12/18 05:24:42;;;;;;;12.90;12.20;;;;;;;;;;5071938;28;20471;-62
2023/12/18 05:27:07;;;;;;;12.95;12.25;;;;;;;;;;5071537;28;20383;-62
2023/12/18 05:29:33;;;;;;;13.32;12.63;;;;;;;;;;5072816;28;20016;-63
2023/12/18 05:31:58;;;;;;;12.30;11.70;;;;;;;;;;5074255;28;20020;-62
2023/12/18 05:34:23;;;;;;;12.95;12.25;;;;;;;;;;5071499;28;20028;-62
2023/12/18 05:36:49;;;;;;;13.02;12.35;;;;;;;;;;5071536;28;20486;-62
2023/12/18 05:39:14;;;;;;;12.95;12.25;;;;;;;;;;5071733;28;20549;-62
2023/12/18 05:41:39;;;;;;;12.25;11.65;;;;;;;;;;5071723;28;20020;-62
2023/12/18 05:44:05;;;;;;;12.48;11.88;;;;;;;;;;5067414;28;20028;-61
2023/12/18 05:46:30;;;;;;;12.52;11.93;;;;;;;;;;5071350;28;20056;-62
2023/12/18 05:48:55;;;;;;;11.82;11.23;;;;;;;;;;5071312;28;20029;-61
2023/12/18 05:51:21;;;;;;;12.73;12.05;;;;;;;;;;5071162;28;20024;-61
2023/12/18 05:53:47;;;;;;;13.63;12.93;;;;;;;;;;5070492;28;20025;-61
2023/12/18 05:56:13;;;;;;;12.68;12.02;;;;;;;;;;5071193;28;20023;-63
2023/12/18 05:58:38;;;;;;;12.45;11.85;;;;;;;;;;5069342;28;20055;-61
2023/12/18 06:01:03;;;;;;;12.13;11.52;;;;;;;;;;5071815;28;20056;-62
2023/12/18 06:03:28;;;;;;;12.00;11.40;;;;;;;;;;5071507;28;20027;-62
2023/12/18 06:05:54;;;;;;;12.23;11.63;;;;;;;;;;5071610;28;20020;-60
2023/12/18 06:08:19;;;;;;;12.82;12.15;;;;;;;;;;5070774;28;20031;-61
2023/12/18 06:10:44;;;;;;;13.02;12.32;;;;;;;;;;5071433;28;20036;-60
2023/12/18 06:13:10;;;;;;;12.45;11.85;;;;;;;;;;5071095;28;20554;-62
2023/12/18 06:15:35;;;;;;;12.73;12.10;;;;;;;;;;5070684;28;20535;-62
2023/12/18 06:18:00;;;;;;;12.10;11.50;;;;;;;;;;5070658;28;20024;-62
2023/12/18 06:20:26;;;;;;;12.70;12.00;;;;;;;;;;5071155;28;20025;-61
2023/12/18 06:22:51;;;;;;;12.45;11.85;;;;;;;;;;5070715;28;20403;-62
2023/12/18 06:25:16;;;;;;;13.20;12.50;;;;;;;;;;5070627;28;20506;-62
2023/12/18 06:27:44;;;;;;;12.27;11.68;;;;;;;;;;5071587;28;20089;-62
2023/12/18 06:30:09;;;;;;;12.90;12.25;;;;;;;;;;5069909;28;20399;-61
2023/12/18 06:32:35;;;;;;;13.05;12.35;;;;;;;;;;5069008;28;20019;-61
2023/12/18 06:35:00;;;;;;;13.45;12.75;;;;;;;;;;5070600;28;20020;-61
2023/12/18 06:37:25;;;;;;;12.40;11.80;;;;;;;;;;5070438;28;20017;-61
2023/12/18 06:39:51;;;;;;;13.65;12.95;;;;;;;;;;5069299;28;20028;-61
2023/12/18 06:42:16;;;;;;;12.77;12.15;;;;;;;;;;5063054;28;20028;-61
2023/12/18 06:44:42;;;;;;;12.57;11.98;;;;;;;;;;5070353;28;20036;-62
2023/12/18 06:47:07;;;;;;;13.32;12.63;;;;;;;;;;5070463;28;20032;-61
2023/12/18 06:49:32;;;;;;;13.07;12.38;;;;;;;;;;5069168;28;20456;-62
2023/12/18 06:51:58;;;;;;;14.13;13.32;;;;;;;;;;5068619;28;20439;-62
2023/12/18 06:54:23;;;;;;;13.32;12.63;;;;;;;;;;5058557;28;20096;-62
2023/12/18 06:56:48;;;;;;;13.38;12.68;;;;;;;;;;5070304;28;20460;-62
2023/12/18 06:59:14;;;;;;;12.63;12.02;;;;;;;;;;5070317;28;20043;-61
2023/12/18 07:01:39;;;;;;;12.30;11.70;;;;;;;;;;5068849;28;20028;-60
2023/12/18 07:04:04;;;;;;;12.65;12.05;;;;;;;;;;5070060;28;20024;-61
2023/12/18 07:06:30;;;;;;;14.07;13.32;;;;;;;;;;5070078;28;20502;-61
2023/12/18 07:08:56;;;;;;;13.85;13.15;;;;;;;;;;5068000;28;20025;-62
2023/12/18 07:11:22;;;;;;;12.60;12.00;;;;;;;;;;5070473;28;20120;-60
2023/12/18 07:13:48;;;;;;;12.77;12.18;;;;;;;;;;5070610;28;20103;-62
2023/12/18 07:16:23;;;;;;;13.02;12.43;;;;;;;;;;5070101;28;20062;-61
2023/12/18 07:18:48;;;;;;;12.45;11.85;;;;;;;;;;5069927;28;20039;-61
2023/12/18 07:21:14;;;;;;;12.63;12.02;;;;;;;;;;5070417;28;20020;-60
2023/12/18 07:23:40;;;;;;;13.18;12.52;;;;;;;;;;5070310;28;20058;-62
2023/12/18 07:26:08;;;;;;;12.77;12.18;;;;;;;;;;5070233;28;20070;-62
2023/12/18 07:28:34;;;;;;;12.75;12.15;;;;;;;;;;5069056;28;20021;-62
2023/12/18 07:30:59;;;;;;;12.50;11.90;;;;;;;;;;5070415;28;20476;-61
2023/12/18 07:33:24;;;;;;;15.02;14.23;;;;;;;;;;5069843;28;20442;-61
2023/12/18 07:35:52;;;;;;;12.65;12.05;;;;;;;;;;5070132;28;20540;-62
2023/12/18 07:38:17;;;;;;;12.93;12.32;;;;;;;;;;5070209;28;20608;-62
2023/12/18 07:40:43;;;;;;;12.63;12.02;;;;;;;;;;5070235;28;20025;-62
2023/12/18 07:43:08;;;;;;;14.15;13.45;;;;;;;;;;5068788;28;20092;-62
2023/12/18 07:45:33;;;;;;;12.88;12.27;;;;;;;;;;5070104;28;20028;-62
2023/12/18 07:47:59;;;;;;;12.90;12.30;;;;;;;;;;5070386;28;20020;-62
2023/12/18 07:50:24;;;;;;;13.20;12.60;;;;;;;;;;5070729;28;20490;-61
2023/12/18 07:52:49;;;;;;;13.50;12.90;;;;;;;;;;5073717;28;20020;-62
2023/12/18 07:55:15;;;;;;;13.55;12.95;;;;;;;;;;5072544;28;20074;-62
2023/12/18 07:57:42;;;;;;;14.45;13.75;;;;;;;;;;5073467;28;20012;-63
2023/12/18 08:00:08;;;;;;;13.85;13.25;;;;;;;;;;5073253;28;20016;-60
2023/12/18 08:02:34;;;;;;;13.63;13.02;;;;;;;;;;5073492;28;20020;-62
2023/12/18 08:04:59;;;;;;;14.38;13.68;;;;;;;;;;5073245;28;20074;-62
2023/12/18 08:07:24;;;;;;;13.73;13.13;;;;;;;;;;5073737;28;20016;-61
2023/12/18 08:09:50;;;;;;;14.05;13.35;;;;;;;;;;5064191;28;20027;-60
2023/12/18 08:12:15;;;;;;;14.10;13.40;;;;;;;;;;5073139;28;20031;-63
2023/12/18 08:14:43;;;;;;;14.23;13.52;;;;;;;;;;5073327;28;20025;-61
2023/12/18 08:17:11;;;;;;;14.25;13.55;;;;;;;;;;5073099;28;20137;-62
2023/12/18 08:19:36;;;;;;;13.93;13.32;;;;;;;;;;5072003;28;20032;-61
2023/12/18 08:22:02;;;;;;;13.60;13.00;;;;;;;;;;5073108;28;20021;-62
2023/12/18 08:24:27;;;;;;;14.40;13.70;;;;;;;;;;5072947;28;20020;-62
2023/12/18 08:26:52;;;;;;;14.07;13.48;;;;;;;;;;5068595;28;20024;-61
2023/12/18 08:29:18;;;;;;;13.45;12.85;;;;;;;;;;5073021;28;20099;-60
2023/12/18 08:31:43;;;;;;;13.93;13.32;;;;;;;;;;5072954;28;20024;-62
2023/12/18 08:34:09;;;;;;;13.60;13.00;;;;;;;;;;5081161;28;20056;-62
2023/12/18 08:36:36;;;;;;;13.95;13.35;;;;;;;;;;5073341;28;20047;-62
2023/12/18 08:39:01;;;;;;;13.95;13.35;;;;;;;;;;5072702;28;20052;-62
2023/12/18 08:41:26;;;;;;;14.18;13.57;;;;;;;;;;5068455;28;20056;-61
2023/12/18 08:43:52;;;;;;;13.50;12.90;;;;;;;;;;5073052;28;20091;-62
2023/12/18 08:46:17;;;;;;;14.40;13.70;;;;;;;;;;5069422;28;20040;-62
2023/12/18 08:48:42;;;;;;;14.40;13.70;;;;;;;;;;5073108;28;20069;-61
2023/12/18 08:51:08;;;;;;;13.82;13.23;;;;;;;;;;5075447;28;20477;-62
2023/12/18 08:53:33;;;;;;;13.77;13.18;;;;;;;;;;5072528;28;20090;-64
2023/12/18 08:55:59;;;;;;;13.57;12.98;;;;;;;;;;5064033;28;20424;-61
2023/12/18 08:58:25;;;;;;;13.45;12.85;;;;;;;;;;5072205;28;20054;-61
2023/12/18 09:00:52;;;;;;;13.60;13.00;;;;;;;;;;5072966;28;20016;-62
2023/12/18 09:03:19;;;;;;;13.70;13.10;;;;;;;;;;5072064;28;20774;-61
2023/12/18 09:05:44;;;;;;;13.27;12.68;;;;;;;;;;5071722;28;20361;-62
2023/12/18 09:08:11;;;;;;;13.85;13.25;;;;;;;;;;5072505;28;20027;-62
2023/12/18 09:10:36;;;;;;;13.43;12.82;;;;;;;;;;5071198;28;20296;-62
2023/12/18 09:13:02;;;;;;;13.48;12.88;;;;;;;;;;5071785;28;20008;-61
2023/12/18 09:15:27;;;;;;;13.55;12.95;;;;;;;;;;5071836;28;20055;-62
2023/12/18 09:17:53;;;;;;;13.60;13.00;;;;;;;;;;5072162;28;20020;-62
2023/12/18 09:20:18;;;;;;;13.75;13.15;;;;;;;;;;5072316;28;20024;-62
2023/12/18 09:22:48;;;;;;;13.57;12.98;;;;;;;;;;5070867;28;20024;-62
2023/12/18 09:25:14;;;;;;;13.90;13.30;;;;;;;;;;5071799;28;20016;-62
2023/12/18 09:27:39;;;;;;;13.45;12.85;;;;;;;;;;5069937;28;20024;-61
2023/12/18 09:30:05;;;;;;;13.90;13.30;;;;;;;;;;5072216;28;20016;-61
2023/12/18 09:32:30;;;;;;;13.63;13.02;;;;;;;;;;5072261;28;20036;-62
2023/12/18 09:34:55;;;;;;;13.80;13.20;;;;;;;;;;5071869;28;20022;-62
2023/12/18 09:37:21;;;;;;;13.65;13.05;;;;;;;;;;5071784;28;20027;-63
2023/12/18 09:39:47;;;;;;;14.15;13.55;;;;;;;;;;5071745;28;20031;-61
2023/12/18 09:42:12;;;;;;;13.80;13.20;;;;;;;;;;5071793;28;20025;-61
2023/12/18 09:44:38;;;;;;;14.48;13.77;;;;;;;;;;5071489;28;20027;-62
2023/12/18 09:47:04;;;;;;;13.55;12.95;;;;;;;;;;5071960;28;20021;-62
2023/12/18 09:49:30;;;;;;;14.30;13.60;;;;;;;;;;5071400;28;20111;-62
2023/12/18 09:52:06;;;;;;;14.05;13.40;;;;;;;;;;5071626;28;20388;-62
2023/12/18 09:54:32;;;;;;;13.85;13.25;;;;;;;;;;5071549;28;20008;-61
2023/12/18 09:56:59;;;;;;;13.93;13.32;;;;;;;;;;5071786;28;20095;-62
2023/12/18 09:59:24;;;;;;;13.70;13.10;;;;;;;;;;5071385;28;20020;-62
2023/12/18 10:01:51;;;;;;;13.70;13.10;;;;;;;;;;5071311;28;20027;-62
2023/12/18 10:04:16;;;;;;;13.52;12.93;;;;;;;;;;5071889;28;20101;-63
2023/12/18 10:06:41;;;;;;;13.80;13.20;;;;;;;;;;5070805;28;20491;-62
2023/12/18 10:09:09;;;;;;;13.73;13.13;;;;;;;;;;5070608;28;20024;-60
2023/12/18 10:11:34;;;;;;;14.35;13.65;;;;;;;;;;5071341;28;20027;-61
2023/12/18 10:13:59;;;;;;;13.77;13.18;;;;;;;;;;5070261;28;20021;-62
2023/12/18 10:16:25;;;;;;;13.35;12.75;;;;;;;;;;5070919;28;20040;-61
2023/12/18 10:18:51;;;;;;;13.45;12.85;;;;;;;;;;5071002;28;20074;-62
2023/12/18 10:21:25;;;;;;;14.20;13.50;;;;;;;;;;5071242;28;20024;-61
2023/12/18 10:23:52;;;;;;;13.90;13.30;;;;;;;;;;5067859;28;20100;-60
2023/12/18 10:26:17;;;;;;;13.80;13.20;;;;;;;;;;5070989;28;20020;-61
2023/12/18 10:28:43;;;;;;;13.60;13.00;;;;;;;;;;5070619;28;20028;-61
2023/12/18 10:31:10;;;;;;;14.18;13.48;;;;;;;;;;5070981;28;20138;-60
2023/12/18 10:33:35;;;;;;;13.77;13.18;;;;;;;;;;5070754;28;20013;-62
2023/12/18 10:36:01;;;;;;;13.68;13.07;;;;;;;;;;5070613;28;20070;-61
2023/12/18 10:38:29;;;;;;;13.30;12.70;;;;;;;;;;5072970;28;20103;-61
2023/12/18 10:40:58;;;;;;;13.10;12.50;;;;;;;;;;5071335;28;20025;-60
2023/12/18 10:43:24;;;;;;;13.20;12.60;;;;;;;;;;5071164;28;20390;-62
2023/12/18 10:45:50;;;;;;;13.20;12.60;;;;;;;;;;5071023;28;20012;-61
2023/12/18 10:48:18;;;;;;;13.40;12.80;;;;;;;;;;5070474;28;20024;-62
2023/12/18 10:50:44;;;;;;;13.93;13.27;;;;;;;;;;5071778;28;20423;-61
2023/12/18 10:53:11;;;;;;;13.35;12.75;;;;;;;;;;5071413;28;20059;-62
2023/12/18 10:55:37;;;;;;;13.80;13.20;;;;;;;;;;5070542;28;20021;-63
2023/12/18 10:58:04;;;;;;;13.40;12.80;;;;;;;;;;5070391;28;20034;-61
2023/12/18 11:00:31;;;;;;;14.00;13.30;;;;;;;;;;5070645;28;20435;-62
2023/12/18 11:02:56;;;;;;;14.00;13.30;;;;;;;;;;5070384;28;20018;-62
2023/12/18 11:05:23;;;;;;;14.02;13.32;;;;;;;;;;5070900;28;20024;-62
2023/12/18 11:07:49;;;;;;;13.63;13.02;;;;;;;;;;5071029;28;20420;-62
2023/12/18 11:10:15;;;;;;;13.18;12.57;;;;;;;;;;5066051;28;20082;-63
2023/12/18 11:12:41;;;;;;;15.27;14.52;;;;;;;;;;5070447;28;20024;-62
2023/12/18 11:15:15;;;;;;;13.88;13.23;;;;;;;;;;5070372;28;20032;-61
2023/12/18 11:18:01;;;;;;;13.77;13.15;;;;;;;;;;5065285;28;20110;-61
2023/12/18 11:20:31;;;;;;;14.43;13.73;;;;;;;;;;5069734;28;20039;-62
2023/12/18 11:22:57;;;;;;;13.90;13.25;;;;;;;;;;5068795;28;20490;-61
2023/12/18 11:25:27;;;;;;;14.18;13.48;;;;;;;;;;5069620;28;20032;-62
2023/12/18 11:27:53;;;;;;;13.20;12.60;;;;;;;;;;5074363;28;20020;-61
2023/12/18 11:30:22;;;;;;;13.32;12.73;;;;;;;;;;5073946;28;20024;-62
2023/12/18 11:32:48;;;;;;;13.98;13.30;;;;;;;;;;5073869;28;20051;-62
2023/12/18 11:35:13;;;;;;;13.38;12.77;;;;;;;;;;5073806;28;20097;-62
2023/12/18 11:37:51;;;;;;;13.80;13.20;;;;;;;;;;5073051;28;20028;-62
2023/12/18 11:40:32;;;;;;;13.20;12.60;;;;;;;;;;5074287;28;20103;-61
2023/12/18 11:42:57;;;;;;;14.25;13.55;;;;;;;;;;5073735;28;20024;-60
2023/12/18 11:45:23;;;;;;;13.73;13.13;;;;;;;;;;5073921;28;20103;-63
2023/12/18 11:47:56;;;;;;;13.15;12.55;;;;;;;;;;5075392;28;20016;-60
2023/12/18 11:50:24;;;;;;;13.52;12.93;;;;;;;;;;5076400;28;20028;-61
2023/12/18 11:52:50;;;;;;;13.65;13.05;;;;;;;;;;5076709;28;20476;-60
2023/12/18 11:55:34;;;;;;;13.70;13.10;;;;;;;;;;5074465;28;20020;-61
2023/12/18 11:58:00;;;;;;;13.73;13.13;;;;;;;;;;5072214;28;20017;-62
2023/12/18 12:00:26;;;;;;;13.75;13.15;;;;;;;;;;5073413;28;20038;-63
2023/12/18 12:02:51;;;;;;;13.85;13.20;;;;;;;;;;5073391;28;20605;-62
2023/12/18 12:05:18;;;;;;;14.27;13.57;;;;;;;;;;5073410;28;20020;-62
2023/12/18 12:07:48;;;;;;;13.77;13.18;;;;;;;;;;5073545;28;20020;-62
2023/12/18 12:10:14;;;;;;;13.75;13.13;;;;;;;;;;5073530;28;20108;-62
2023/12/18 12:12:39;;;;;;;13.07;12.48;;;;;;;;;;5073847;28;20107;-62
2023/12/18 12:15:05;;;;;;;13.40;12.80;;;;;;;;;;5073275;28;20066;-62
2023/12/18 12:17:30;;;;;;;13.57;12.98;;;;;;;;;;5073488;28;21247;-61
2023/12/18 12:19:55;;;;;;;13.82;13.23;;;;;;;;;;5073293;28;20526;-63
2023/12/18 12:22:21;;;;;;;14.38;13.68;;;;;;;;;;5072935;28;20085;-62
2023/12/18 12:24:46;;;;;;;13.68;13.07;;;;;;;;;;5072899;28;20016;-61
2023/12/18 12:27:12;;;;;;;13.63;13.02;;;;;;;;;;5075424;28;20044;-61
2023/12/18 12:29:37;;;;;;;14.55;13.85;;;;;;;;;;5072777;28;20073;-62
2023/12/18 12:32:02;;;;;;;14.27;13.57;;;;;;;;;;5061487;28;20100;-62
2023/12/18 12:34:28;;;;;;;13.77;13.18;;;;;;;;;;5073170;28;20020;-62
2023/12/18 12:36:53;;;;;;;13.30;12.70;;;;;;;;;;5071752;28;20027;-62
2023/12/18 12:39:19;;;;;;;13.82;13.18;;;;;;;;;;5068045;28;20020;-62
2023/12/18 12:41:45;;;;;;;13.80;13.20;;;;;;;;;;5071740;28;20035;-62
2023/12/18 12:44:10;;;;;;;13.38;12.77;;;;;;;;;;5072562;28;20017;-62
2023/12/18 12:46:36;;;;;;;13.60;13.00;;;;;;;;;;5072768;28;20028;-61
2023/12/18 12:49:01;;;;;;;13.50;12.90;;;;;;;;;;5074498;28;20036;-63
2023/12/18 12:51:27;;;;;;;14.00;13.30;;;;;;;;;;5079406;28;20020;-61
2023/12/18 12:53:52;;;;;;;13.38;12.77;;;;;;;;;;5072690;28;20071;-61
2023/12/18 12:56:18;;;;;;;13.40;12.80;;;;;;;;;;5069257;28;20070;-61
2023/12/18 12:58:43;;;;;;;13.52;12.93;;;;;;;;;;5072413;28;20048;-62
2023/12/18 13:01:08;;;;;;;13.40;12.80;;;;;;;;;;5072439;28;20024;-61
2023/12/18 13:03:34;;;;;;;13.70;13.10;;;;;;;;;;5072631;28;20391;-60
2023/12/18 13:05:59;;;;;;;12.98;12.38;;;;;;;;;;5071017;28;20103;-61
2023/12/18 13:08:24;;;;;;;13.43;12.82;;;;;;;;;;5072512;28;20016;-61
2023/12/18 13:10:50;;;;;;;14.18;13.48;;;;;;;;;;5064776;28;20048;-61
2023/12/18 13:13:15;;;;;;;13.48;12.88;;;;;;;;;;5071986;28;20175;-61
2023/12/18 13:15:40;;;;;;;13.90;13.20;;;;;;;;;;5071629;28;20500;-61
2023/12/18 13:18:06;;;;;;;13.77;13.07;;;;;;;;;;5071885;28;20020;-62
2023/12/18 13:20:31;;;;;;;13.75;13.13;;;;;;;;;;5072093;28;20024;-61
2023/12/18 13:22:56;;;;;;;14.60;13.90;;;;;;;;;;5071897;28;20046;-61
2023/12/18 13:25:22;;;;;;;14.00;13.30;;;;;;;;;;5076147;28;20032;-62
2023/12/18 13:27:47;;;;;;;13.73;13.13;;;;;;;;;;5071639;28;20612;-62
2023/12/18 13:30:13;;;;;;;13.52;12.93;;;;;;;;;;5071646;28;20032;-61
2023/12/18 13:32:39;;;;;;;13.70;13.10;;;;;;;;;;5071323;28;20074;-61
2023/12/18 13:35:06;;;;;;;13.50;12.90;;;;;;;;;;5071549;28;20017;-62
2023/12/18 13:37:32;;;;;;;13.80;13.15;;;;;;;;;;5061385;28;20162;-61
2023/12/18 13:39:57;;;;;;;13.90;13.20;;;;;;;;;;5068447;28;20024;-61
2023/12/18 13:42:23;;;;;;;13.18;12.57;;;;;;;;;;5071812;28;20024;-63
2023/12/18 13:44:48;;;;;;;13.63;13.00;;;;;;;;;;5081926;28;20399;-61
2023/12/18 13:47:14;;;;;;;14.18;13.48;;;;;;;;;;5069558;28;20506;-61
2023/12/18 13:49:40;;;;;;;14.63;13.93;;;;;;;;;;5070932;28;20036;-61
2023/12/18 13:52:05;;;;;;;14.10;13.40;;;;;;;;;;5070870;28;20443;-63
2023/12/18 13:54:32;;;;;;;14.70;14.00;;;;;;;;;;5071051;28;20039;-62
2023/12/18 13:56:58;;;;;;;14.35;13.65;;;;;;;;;;5070701;28;20119;-62
2023/12/18 13:59:24;;;;;;;13.60;13.00;;;;;;;;;;5070903;28;20119;-62
2023/12/18 14:01:49;;;;;;;14.00;13.30;;;;;;;;;;5071086;28;20020;-61
2023/12/18 14:04:14;;;;;;;14.05;13.35;;;;;;;;;;5070692;28;20058;-62
2023/12/18 14:06:40;;;;;;;13.57;12.98;;;;;;;;;;5069312;28;20044;-62
2023/12/18 14:09:05;;;;;;;13.32;12.73;;;;;;;;;;5071011;28;20020;-62